FNDU

Dundo Airport

Chitato, Angola
METAR FNDU 130900Z 00000KT 9999 FEW030 25/16 Q1021
Observed Flight Rules
Dec-13 @ 09:00 UTC (16 hours ago) Visual Flight Rules
Visibility Clouds
10,000+ meters
  • Few at 3,000' AGL
Temperatures Readings
Current 25°C / 77°F
Dewpoint 16°C / 61°F
Humidity 57%
Altimeter 30.15" Hg
Pressure 1021 hPa
Elevation 747
METAR FNDU 130900Z 00000KT 9999 FEW030 25/16 Q1021
Observed Flight Rules
Dec-13 @ 09:00 UTC
(16 hours ago)
VFR
Clouds
  • Few at 3,000' AGL
Temperature Dewpoint
25°C / 77°F 16°C / 61°F
Humidity Altimeter Pressure
57% 30.15" Hg 1021 hPa